Time;durP1;ratioP1;P1;durP2;ratioP2;P2;SDS_P1;SDS_P2;PMS_P1;PMS_P2;Temp;Humidity;BMP_temperature;BMP_pressure;BME280_temperature;BME280_humidity;BME280_pressure;Samples;Min_cycle;Max_cycle;Signal;HPM_P1;HPM_P2
2023/02/18 00:02:12;;;;;;;5.00;1.00;;;12.90;99.90;;;;;;5091402;28;20386;-57
2023/02/18 00:04:38;;;;;;;4.80;1.10;;;12.80;99.90;;;;;;5090989;28;20386;-57
2023/02/18 00:07:03;;;;;;;5.50;1.10;;;12.70;99.90;;;;;;5090981;28;20390;-58
2023/02/18 00:09:29;;;;;;;5.03;1.13;;;12.80;99.90;;;;;;5091404;28;20389;-58
2023/02/18 00:11:55;;;;;;;4.93;1.13;;;12.80;99.90;;;;;;5090790;28;20417;-58
2023/02/18 00:14:20;;;;;;;4.90;1.10;;;12.90;99.90;;;;;;5091210;28;20390;-57
2023/02/18 00:16:46;;;;;;;5.20;1.00;;;13.00;99.90;;;;;;5089895;28;20890;-58
2023/02/18 00:19:17;;;;;;;5.20;0.90;;;13.00;99.90;;;;;;5090589;28;20474;-58
2023/02/18 00:21:43;;;;;;;5.10;1.00;;;13.00;99.90;;;;;;5090215;28;20386;-57
2023/02/18 00:24:14;;;;;;;4.95;1.00;;;12.90;99.90;;;;;;5091002;28;20386;-58
2023/02/18 00:26:40;;;;;;;5.47;1.00;;;12.90;99.90;;;;;;5090670;28;20409;-58
2023/02/18 00:29:06;;;;;;;5.57;1.00;;;12.00;99.90;;;;;;5090695;28;20462;-57
2023/02/18 00:31:34;;;;;;;4.85;0.85;;;12.70;99.90;;;;;;5090902;28;20937;-58
2023/02/18 00:34:01;;;;;;;4.63;0.80;;;12.70;99.90;;;;;;5089886;28;20390;-58
2023/02/18 00:36:27;;;;;;;4.93;1.10;;;12.70;99.90;;;;;;5085691;28;20389;-58
2023/02/18 00:38:56;;;;;;;4.80;1.17;;;12.80;99.90;;;;;;5088655;28;20485;-58
2023/02/18 00:41:24;;;;;;;4.60;0.98;;;12.80;99.90;;;;;;5090861;28;20436;-58
2023/02/18 00:43:50;;;;;;;4.88;0.90;;;12.80;99.90;;;;;;5089848;28;20394;-58
2023/02/18 00:46:16;;;;;;;5.07;0.90;;;12.50;99.90;;;;;;5090757;28;20412;-58
2023/02/18 00:48:41;;;;;;;6.90;1.30;;;12.50;99.90;;;;;;5089533;28;20416;-58
2023/02/18 00:51:08;;;;;;;5.47;1.73;;;12.50;99.90;;;;;;5090773;28;20875;-58
2023/02/18 00:53:34;;;;;;;4.70;1.00;;;12.40;99.90;;;;;;5090700;28;20443;-57
2023/02/18 00:56:00;;;;;;;5.40;1.00;;;12.50;99.90;;;;;;5089629;28;21040;-57
2023/02/18 00:58:26;;;;;;;5.45;1.23;;;12.60;99.90;;;;;;5087373;28;20416;-57
2023/02/18 01:00:53;;;;;;;5.30;1.27;;;12.60;99.90;;;;;;5088770;28;20444;-57
2023/02/18 01:03:19;;;;;;;5.00;1.20;;;12.60;99.90;;;;;;5090214;28;20871;-57
2023/02/18 01:05:44;;;;;;;4.95;1.10;;;12.60;99.90;;;;;;5089527;28;20390;-57
2023/02/18 01:08:11;;;;;;;4.70;1.13;;;12.70;99.90;;;;;;5090237;28;20422;-58
2023/02/18 01:10:41;;;;;;;4.72;1.00;;;12.60;99.90;;;;;;5090004;28;20402;-57
2023/02/18 01:13:07;;;;;;;5.70;1.40;;;12.80;99.90;;;;;;5087822;28;20957;-57
2023/02/18 01:15:32;;;;;;;5.00;1.27;;;12.70;99.90;;;;;;5090566;28;20461;-58
2023/02/18 01:17:58;;;;;;;6.00;1.60;;;12.60;99.90;;;;;;5089432;28;21023;-58
2023/02/18 01:20:24;;;;;;;5.25;1.20;;;12.60;99.90;;;;;;5088005;28;20899;-58
2023/02/18 01:22:50;;;;;;;5.60;1.60;;;12.60;99.90;;;;;;5089351;28;20879;-57
2023/02/18 01:25:15;;;;;;;5.20;1.30;;;12.60;99.90;;;;;;5089266;28;20855;-58
2023/02/18 01:27:41;;;;;;;5.80;1.60;;;12.60;99.90;;;;;;5089657;28;20416;-58
2023/02/18 01:30:11;;;;;;;5.50;1.50;;;12.50;99.90;;;;;;5089775;28;20886;-57
2023/02/18 01:32:37;;;;;;;5.22;1.35;;;12.50;99.90;;;;;;5089805;28;20382;-57
2023/02/18 01:35:04;;;;;;;5.47;1.30;;;12.50;99.90;;;;;;5089039;28;20416;-58
2023/02/18 01:37:30;;;;;;;6.78;1.70;;;12.50;99.90;;;;;;5089524;28;20390;-58
2023/02/18 01:39:55;;;;;;;5.78;1.50;;;12.40;99.90;;;;;;5088489;28;20735;-58
2023/02/18 01:42:25;;;;;;;5.47;1.50;;;12.30;99.90;;;;;;5088423;28;20879;-58
2023/02/18 01:44:51;;;;;;;5.93;1.48;;;12.30;99.90;;;;;;5086958;28;20440;-57
2023/02/18 01:47:17;;;;;;;5.53;1.70;;;12.20;99.90;;;;;;5089236;28;20393;-58
2023/02/18 01:49:50;;;;;;;5.97;1.90;;;12.10;99.90;;;;;;5087140;28;20401;-57
2023/02/18 01:52:19;;;;;;;7.60;1.50;;;12.20;99.90;;;;;;5089282;28;20473;-57
2023/02/18 01:54:53;;;;;;;5.40;1.50;;;12.30;99.90;;;;;;5088629;28;20484;-57
2023/02/18 01:57:28;;;;;;;6.30;1.80;;;12.20;99.90;;;;;;5087925;28;20751;-58
2023/02/18 02:00:03;;;;;;;6.38;1.63;;;12.40;99.90;;;;;;5084845;28;20398;-57
2023/02/18 02:02:34;;;;;;;6.30;1.77;;;12.60;99.90;;;;;;5088386;28;20408;-58
2023/02/18 02:05:00;;;;;;;5.93;1.60;;;12.50;99.90;;;;;;5088527;28;20401;-57
2023/02/18 02:07:27;;;;;;;6.50;1.40;;;12.50;99.90;;;;;;5089018;28;20386;-57
2023/02/18 02:09:56;;;;;;;5.90;1.50;;;12.40;99.90;;;;;;5088025;28;20386;-58
2023/02/18 02:12:43;;;;;;;6.10;1.50;;;12.40;99.90;;;;;;5088435;28;20441;-58
2023/02/18 02:15:27;;;;;;;5.65;1.40;;;12.40;99.90;;;;;;5087051;28;20393;-58
2023/02/18 02:18:13;;;;;;;6.35;1.67;;;12.40;99.90;;;;;;5087990;28;20460;-58
2023/02/18 02:21:01;;;;;;;5.40;1.30;;;12.50;99.90;;;;;;5086672;28;20482;-58
2023/02/18 02:23:45;;;;;;;5.65;1.40;;;12.60;99.90;;;;;;5083347;28;20755;-58
2023/02/18 02:26:19;;;;;;;5.95;1.63;;;12.50;99.90;;;;;;5083964;28;20449;-58
2023/02/18 02:29:18;;;;;;;6.80;1.60;;;12.50;99.90;;;;;;5088128;28;20389;-58
2023/02/18 02:32:28;;;;;;;5.80;1.50;;;13.50;99.90;;;;;;5087708;28;20412;-57
2023/02/18 02:35:02;;;;;;;6.90;1.60;;;12.60;99.90;;;;;;5083949;28;20497;-58
2023/02/18 02:37:40;;;;;;;6.37;2.00;;;12.50;99.90;;;;;;5083603;28;20465;-58
2023/02/18 02:40:15;;;;;;;6.80;1.50;;;12.70;99.90;;;;;;5088192;28;20484;-58
2023/02/18 02:42:52;;;;;;;5.28;1.30;;;12.70;99.90;;;;;;5087143;28;20483;-58
2023/02/18 02:45:33;;;;;;;6.07;1.80;;;12.60;99.90;;;;;;5086493;28;20390;-58
2023/02/18 02:48:14;;;;;;;5.90;1.50;;;13.60;99.90;;;;;;5084905;28;20390;-58
2023/02/18 02:50:44;;;;;;;5.80;1.50;;;12.60;99.90;;;;;;5085578;28;20445;-58
2023/02/18 02:53:24;;;;;;;8.45;1.70;;;12.50;99.90;;;;;;5086621;28;20390;-58
2023/02/18 02:55:50;;;;;;;6.68;1.58;;;12.40;99.90;;;;;;5082699;28;20499;-57
2023/02/18 02:58:17;;;;;;;6.55;1.70;;;12.30;99.90;;;;;;5087377;28;20390;-57
2023/02/18 03:00:52;;;;;;;5.55;1.60;;;12.30;99.90;;;;;;5087716;28;20436;-58
2023/02/18 03:03:26;;;;;;;6.70;1.70;;;12.30;99.90;;;;;;5086022;28;20394;-57
2023/02/18 03:06:00;;;;;;;5.78;1.60;;;12.30;99.90;;;;;;5083257;28;20408;-58
2023/02/18 03:09:00;;;;;;;6.00;1.60;;;12.50;99.90;;;;;;5088159;28;20385;-57
2023/02/18 03:11:29;;;;;;;5.20;1.40;;;12.50;99.90;;;;;;5087737;28;20501;-58
2023/02/18 03:14:14;;;;;;;5.70;1.80;;;12.50;99.90;;;;;;5087293;28;21197;-58
2023/02/18 03:17:10;;;;;;;5.13;1.50;;;12.50;98.40;;;;;;5086233;28;20469;-57
2023/02/18 03:19:40;;;;;;;5.90;1.60;;;12.50;92.70;;;;;;5088349;28;20397;-58
2023/02/18 03:22:14;;;;;;;7.20;1.45;;;12.50;95.40;;;;;;5087830;28;20866;-57
2023/02/18 03:24:45;;;;;;;5.43;1.35;;;12.40;94.90;;;;;;5090170;28;20456;-57
2023/02/18 03:27:24;;;;;;;6.35;1.70;;;12.40;94.20;;;;;;5086855;28;20397;-58
2023/02/18 03:30:00;;;;;;;5.57;1.50;;;12.40;94.30;;;;;;5087342;28;20394;-57
2023/02/18 03:32:28;;;;;;;5.65;1.63;;;12.40;98.90;;;;;;5092242;28;20386;-57
2023/02/18 03:34:59;;;;;;;6.20;1.60;;;12.40;97.60;;;;;;5090935;28;20417;-57
2023/02/18 03:37:26;;;;;;;6.13;1.40;;;12.50;96.70;;;;;;5091904;28;20431;-57
2023/02/18 03:39:55;;;;;;;5.97;1.70;;;12.50;94.60;;;;;;5091007;28;20425;-57
2023/02/18 03:42:27;;;;;;;7.25;1.67;;;12.40;97.10;;;;;;5091830;28;21076;-58
2023/02/18 03:44:53;;;;;;;6.55;1.33;;;12.50;96.60;;;;;;5086612;28;20866;-57
2023/02/18 03:47:19;;;;;;;5.25;1.10;;;12.40;94.10;;;;;;5091790;28;20393;-59
2023/02/18 03:49:45;;;;;;;6.37;1.30;;;12.50;92.90;;;;;;5090630;28;20459;-58
2023/02/18 03:52:10;;;;;;;6.03;1.50;;;12.60;93.40;;;;;;5091461;28;20408;-58
2023/02/18 03:54:36;;;;;;;5.18;1.30;;;12.50;93.80;;;;;;5091468;28;20409;-58
2023/02/18 03:57:02;;;;;;;5.90;1.50;;;12.40;97.90;;;;;;5090832;28;21027;-58
2023/02/18 03:59:28;;;;;;;5.50;1.42;;;12.40;99.90;;;;;;5088122;28;20831;-58
2023/02/18 04:01:53;;;;;;;5.55;1.50;;;12.20;99.90;;;;;;5090668;28;20398;-58
2023/02/18 04:04:19;;;;;;;5.70;1.50;;;12.30;99.90;;;;;;5091078;28;20393;-57
2023/02/18 04:06:44;;;;;;;5.80;1.70;;;12.20;99.90;;;;;;5090993;28;20748;-57
2023/02/18 04:09:10;;;;;;;5.20;1.63;;;12.30;99.90;;;;;;5090900;28;20429;-57
2023/02/18 04:11:38;;;;;;;5.80;1.60;;;12.20;99.90;;;;;;5091021;28;20406;-58
2023/02/18 04:14:04;;;;;;;5.40;1.60;;;12.20;99.90;;;;;;5090075;28;20390;-57
2023/02/18 04:16:29;;;;;;;6.50;1.40;;;12.00;99.90;;;;;;5091252;28;20431;-57
2023/02/18 04:18:55;;;;;;;6.80;1.77;;;11.20;99.90;;;;;;5089984;28;20397;-58
2023/02/18 04:21:21;;;;;;;6.20;1.70;;;11.90;99.90;;;;;;5090624;28;21013;-58
2023/02/18 04:23:46;;;;;;;6.65;1.83;;;11.80;99.90;;;;;;5090511;28;20394;-57
2023/02/18 04:26:12;;;;;;;6.70;2.00;;;11.90;99.90;;;;;;5090025;28;20536;-58
2023/02/18 04:28:38;;;;;;;5.87;1.80;;;11.90;99.90;;;;;;5090744;28;20396;-57
2023/02/18 04:31:03;;;;;;;6.68;2.00;;;12.00;99.90;;;;;;5089958;28;20697;-57
2023/02/18 04:33:29;;;;;;;6.50;2.10;;;12.20;99.90;;;;;;5090952;28;20382;-57
2023/02/18 04:35:54;;;;;;;6.28;2.00;;;12.30;99.90;;;;;;5090143;28;20404;-57
2023/02/18 04:38:20;;;;;;;9.07;2.10;;;12.20;99.90;;;;;;5090811;28;20960;-58
2023/02/18 04:40:46;;;;;;;5.97;1.77;;;12.40;99.90;;;;;;5089719;28;20400;-58
2023/02/18 04:43:12;;;;;;;10.40;2.00;;;12.40;99.90;;;;;;5090821;28;20386;-58
2023/02/18 04:45:37;;;;;;;5.70;1.90;;;12.30;99.90;;;;;;5090528;28;20444;-57
2023/02/18 04:48:03;;;;;;;6.10;1.80;;;12.40;99.90;;;;;;5087064;28;20421;-57
2023/02/18 04:50:29;;;;;;;6.78;1.80;;;12.20;99.90;;;;;;5090751;28;20421;-57
2023/02/18 04:52:55;;;;;;;5.80;1.73;;;12.00;99.90;;;;;;5089818;28;20396;-57
2023/02/18 04:55:20;;;;;;;5.65;1.70;;;12.20;99.90;;;;;;5090287;28;20806;-58
2023/02/18 04:57:46;;;;;;;5.20;1.50;;;12.10;99.90;;;;;;5089715;28;20920;-59
2023/02/18 05:00:15;;;;;;;6.60;2.10;;;12.10;99.90;;;;;;5089934;28;20398;-58
2023/02/18 05:02:41;;;;;;;5.97;1.80;;;12.00;99.90;;;;;;5090253;28;20417;-57
2023/02/18 05:05:07;;;;;;;6.03;1.98;;;11.90;99.90;;;;;;5090013;28;20386;-58
2023/02/18 05:07:33;;;;;;;6.05;1.85;;;11.80;99.90;;;;;;5090031;28;20743;-57
2023/02/18 05:10:00;;;;;;;5.57;1.52;;;11.80;99.90;;;;;;5089227;28;20875;-57
2023/02/18 05:12:26;;;;;;;5.90;1.50;;;11.80;99.90;;;;;;5088990;28;20863;-57
2023/02/18 05:14:52;;;;;;;6.53;1.98;;;11.70;99.90;;;;;;5089087;28;20482;-57
2023/02/18 05:17:18;;;;;;;5.70;1.67;;;11.80;99.90;;;;;;5089517;28;20463;-57
2023/02/18 05:19:44;;;;;;;7.70;1.90;;;11.70;99.90;;;;;;5089214;28;20887;-57
2023/02/18 05:22:09;;;;;;;7.70;1.80;;;11.70;99.90;;;;;;5089555;28;20382;-57
2023/02/18 05:24:35;;;;;;;6.70;2.00;;;11.60;99.90;;;;;;5089529;28;20401;-56
2023/02/18 05:27:00;;;;;;;5.90;1.50;;;11.60;99.90;;;;;;5089539;28;21403;-57
2023/02/18 05:29:26;;;;;;;5.63;1.77;;;11.50;99.90;;;;;;5089584;28;20476;-58
2023/02/18 05:31:52;;;;;;;5.30;1.30;;;11.40;99.90;;;;;;5088894;28;20406;-57
2023/02/18 05:34:19;;;;;;;6.63;1.80;;;11.20;99.90;;;;;;5088964;28;20422;-58
2023/02/18 05:36:44;;;;;;;5.93;1.50;;;11.10;99.90;;;;;;5089109;28;21160;-57
2023/02/18 05:39:10;;;;;;;6.20;1.60;;;11.10;1.00;;;;;;5088761;28;20476;-58
2023/02/18 05:41:36;;;;;;;5.80;1.53;;;11.10;99.90;;;;;;5089610;28;20443;-57
2023/02/18 05:46:45;;;;;;;5.25;1.33;;;11.10;99.90;;;;;;5087496;28;20385;-58
2023/02/18 05:49:11;;;;;;;5.10;1.50;;;11.00;1.00;;;;;;5089356;28;20394;-58
2023/02/18 05:51:37;;;;;;;5.80;1.70;;;11.10;99.90;;;;;;5089644;28;20809;-58
2023/02/18 05:54:03;;;;;;;7.05;1.80;;;11.10;99.90;;;;;;5087485;28;20503;-58
2023/02/18 05:56:29;;;;;;;5.25;1.50;;;11.10;99.90;;;;;;5089108;28;20386;-58
2023/02/18 05:58:54;;;;;;;5.33;1.57;;;11.00;99.90;;;;;;5088901;28;20386;-58
2023/02/18 06:01:20;;;;;;;5.30;1.50;;;11.10;99.90;;;;;;5088472;28;20394;-58
2023/02/18 06:03:45;;;;;;;5.50;1.40;;;11.10;99.90;;;;;;5089085;28;20809;-57
2023/02/18 06:06:11;;;;;;;5.30;1.30;;;11.10;99.90;;;;;;5088642;28;20398;-57
2023/02/18 06:08:37;;;;;;;5.37;1.40;;;11.10;1.00;;;;;;5088802;28;21357;-58
2023/02/18 06:11:03;;;;;;;5.05;1.20;;;11.10;1.00;;;;;;5088225;28;20414;-58
2023/02/18 06:13:28;;;;;;;5.50;1.20;;;11.10;99.90;;;;;;5089309;28;20826;-57
2023/02/18 06:15:54;;;;;;;6.78;1.40;;;11.20;1.00;;;;;;5088337;28;20400;-57
2023/02/18 06:18:20;;;;;;;7.30;1.63;;;11.10;1.00;;;;;;5089302;28;20397;-58
2023/02/18 06:20:47;;;;;;;5.80;1.40;;;11.10;1.00;;;;;;5077546;28;20410;-58
2023/02/18 06:23:13;;;;;;;5.72;1.38;;;10.10;1.00;;;;;;5086336;28;20393;-58
2023/02/18 06:25:39;;;;;;;5.88;1.40;;;11.30;99.90;;;;;;5085975;28;20506;-57
2023/02/18 06:28:05;;;;;;;7.40;1.40;;;11.40;99.90;;;;;;5089062;28;20427;-58
2023/02/18 06:30:30;;;;;;;5.00;1.20;;;11.40;99.90;;;;;;5062444;28;20784;-57
2023/02/18 06:32:56;;;;;;;5.00;1.40;;;11.30;99.90;;;;;;5067027;28;20405;-58
2023/02/18 06:35:21;;;;;;;5.00;1.30;;;11.30;99.90;;;;;;5083285;28;20762;-58
2023/02/18 06:37:47;;;;;;;5.67;1.40;;;11.30;99.90;;;;;;5076967;28;20467;-58
2023/02/18 06:40:13;;;;;;;5.40;1.20;;;11.40;99.90;;;;;;5082063;28;20762;-58
2023/02/18 06:42:38;;;;;;;5.67;1.20;;;11.30;1.00;;;;;;5081481;28;20390;-58
2023/02/18 06:45:05;;;;;;;5.35;1.40;;;11.30;1.00;;;;;;5069581;28;20407;-58
2023/02/18 06:47:32;;;;;;;5.28;1.20;;;11.40;1.00;;;;;;5067712;28;20384;-58
2023/02/18 06:49:57;;;;;;;5.00;1.20;;;11.50;99.90;;;;;;5075070;28;20414;-58
2023/02/18 06:52:23;;;;;;;5.37;1.33;;;11.50;99.90;;;;;;5069161;28;20845;-58
2023/02/18 06:54:49;;;;;;;4.70;1.13;;;11.60;1.00;;;;;;5080508;28;20394;-58
2023/02/18 06:57:14;;;;;;;4.97;1.05;;;11.60;1.00;;;;;;5087725;28;20477;-58
2023/02/18 06:59:40;;;;;;;5.40;1.20;;;11.60;1.00;;;;;;5089106;28;20722;-58
2023/02/18 07:02:06;;;;;;;5.40;1.00;;;11.60;1.00;;;;;;5089885;28;20482;-58
2023/02/18 07:04:31;;;;;;;4.50;1.10;;;11.60;1.00;;;;;;5063923;28;20410;-58
2023/02/18 07:06:57;;;;;;;6.45;1.30;;;11.60;1.00;;;;;;5070382;28;20405;-58
2023/02/18 07:09:22;;;;;;;5.10;1.40;;;11.70;1.00;;;;;;5076600;28;20403;-58
2023/02/18 07:11:48;;;;;;;5.00;1.20;;;11.70;1.00;;;;;;5073344;28;20406;-59
2023/02/18 07:14:14;;;;;;;4.78;1.00;;;11.70;99.90;;;;;;5078202;28;20476;-55
2023/02/18 07:16:39;;;;;;;6.27;1.20;;;11.80;99.90;;;;;;5068399;28;20428;-55
2023/02/18 07:19:05;;;;;;;5.30;1.33;;;11.80;99.90;;;;;;5062871;28;20933;-56
2023/02/18 07:21:30;;;;;;;5.30;1.03;;;11.80;99.90;;;;;;5071719;28;20380;-55
2023/02/18 07:23:56;;;;;;;5.90;1.53;;;11.90;99.90;;;;;;5074097;28;20400;-55
2023/02/18 07:26:21;;;;;;;6.22;1.50;;;12.00;99.90;;;;;;5069862;28;20788;-57
2023/02/18 07:28:47;;;;;;;4.90;1.20;;;11.90;99.90;;;;;;5065990;28;20409;-61
2023/02/18 07:31:13;;;;;;;5.30;1.30;;;11.90;99.90;;;;;;5065884;28;20760;-59
2023/02/18 07:33:38;;;;;;;6.53;1.33;;;12.00;99.90;;;;;;5072944;28;20400;-55
2023/02/18 07:36:05;;;;;;;5.27;1.50;;;12.10;99.90;;;;;;5086371;28;20403;-57
2023/02/18 07:38:30;;;;;;;4.90;1.20;;;12.00;99.90;;;;;;5076772;28;20877;-58
2023/02/18 07:40:57;;;;;;;5.20;1.40;;;11.90;99.90;;;;;;5076359;28;20403;-58
2023/02/18 07:43:22;;;;;;;5.80;1.60;;;12.00;99.90;;;;;;5064073;28;20481;-58
2023/02/18 07:45:48;;;;;;;6.50;1.67;;;12.00;99.90;;;;;;5070118;28;20402;-58
2023/02/18 07:48:15;;;;;;;5.50;1.47;;;12.00;99.90;;;;;;5087484;28;20519;-58
2023/02/18 07:50:42;;;;;;;5.90;1.50;;;12.10;99.90;;;;;;5082223;28;20413;-58
2023/02/18 07:53:09;;;;;;;5.50;1.60;;;12.20;99.90;;;;;;5053522;28;20696;-58
2023/02/18 07:55:48;;;;;;;5.60;1.50;;;12.30;99.90;;;;;;5091131;28;20398;-58
2023/02/18 07:58:19;;;;;;;5.30;1.40;;;12.50;99.90;;;;;;5091515;28;20391;-58
2023/02/18 08:00:46;;;;;;;5.80;1.73;;;12.60;99.90;;;;;;5079856;28;20899;-58
2023/02/18 08:03:13;;;;;;;5.20;1.30;;;12.70;99.90;;;;;;5091666;28;20386;-58
2023/02/18 08:05:39;;;;;;;5.88;1.98;;;12.60;99.90;;;;;;5091688;28;20390;-58
2023/02/18 08:08:05;;;;;;;7.43;1.97;;;12.60;99.90;;;;;;5091178;28;20389;-58
2023/02/18 08:10:31;;;;;;;6.15;1.92;;;12.60;99.90;;;;;;5091704;28;20401;-58
2023/02/18 08:12:56;;;;;;;5.70;1.90;;;12.70;99.90;;;;;;5081262;28;20401;-59
2023/02/18 08:15:22;;;;;;;5.85;1.77;;;12.80;99.90;;;;;;5061266;28;20463;-58
2023/02/18 08:17:48;;;;;;;7.10;2.10;;;12.90;99.90;;;;;;5053184;28;20484;-58
2023/02/18 08:20:14;;;;;;;6.28;2.03;;;11.90;84.40;;;;;;5051668;28;20374;-58
2023/02/18 08:22:39;;;;;;;6.37;1.97;;;13.00;64.70;;;;;;5051428;28;20382;-58
2023/02/18 08:25:05;;;;;;;7.30;1.70;;;13.00;43.40;;;;;;5050107;28;20406;-58
2023/02/18 08:27:31;;;;;;;6.45;1.80;;;12.90;23.60;;;;;;5051259;28;20853;-57
2023/02/18 08:29:57;;;;;;;5.77;1.50;;;13.00;15.30;;;;;;5050762;28;20415;-58
2023/02/18 08:32:27;;;;;;;8.20;1.70;;;13.20;5.40;;;;;;5051248;28;20431;-58
2023/02/18 08:34:53;;;;;;;6.28;1.70;;;13.20;1.00;;;;;;5050719;28;20378;-57
2023/02/18 08:37:18;;;;;;;6.00;1.90;;;13.20;1.00;;;;;;5051231;28;20388;-57
2023/02/18 08:39:44;;;;;;;5.97;1.97;;;13.40;1.00;;;;;;5051774;28;20382;-58
2023/02/18 08:42:10;;;;;;;5.97;1.85;;;13.40;1.00;;;;;;5051174;28;20816;-58
2023/02/18 08:44:35;;;;;;;6.97;1.60;;;13.40;1.00;;;;;;5071218;28;20380;-57
2023/02/18 08:47:03;;;;;;;6.93;1.70;;;13.20;1.00;;;;;;5067959;28;20467;-58
2023/02/18 08:49:28;;;;;;;6.43;1.48;;;13.50;1.00;;;;;;5069993;28;20415;-58
2023/02/18 08:51:54;;;;;;;6.30;1.40;;;13.40;1.00;;;;;;5061290;28;20516;-58
2023/02/18 08:54:20;;;;;;;5.80;1.43;;;13.40;1.00;;;;;;5057787;28;20404;-58
2023/02/18 08:56:45;;;;;;;4.90;1.20;;;13.60;1.00;;;;;;5050749;28;20400;-58
2023/02/18 08:59:11;;;;;;;5.40;1.40;;;13.60;1.00;;;;;;5050475;28;20379;-58
2023/02/18 09:01:36;;;;;;;5.78;1.60;;;13.70;1.00;;;;;;5053361;28;20746;-57
2023/02/18 09:04:02;;;;;;;6.20;1.50;;;13.70;1.00;;;;;;5068427;28;20392;-57
2023/02/18 09:06:28;;;;;;;5.50;1.33;;;13.70;1.00;;;;;;5057954;28;20855;-58
2023/02/18 09:08:53;;;;;;;5.60;1.30;;;13.80;1.00;;;;;;5068223;28;20384;-58
2023/02/18 09:11:20;;;;;;;5.73;1.10;;;13.80;1.00;;;;;;5058900;28;20405;-58
2023/02/18 09:13:46;;;;;;;6.80;1.40;;;13.70;1.00;;;;;;5068763;28;20411;-58
2023/02/18 09:16:17;;;;;;;5.68;1.27;;;13.70;1.00;;;;;;5069961;28;20388;-58
2023/02/18 09:18:45;;;;;;;4.82;0.85;;;13.70;1.00;;;;;;5070683;28;20407;-58
2023/02/18 09:21:13;;;;;;;5.37;0.90;;;13.70;1.00;;;;;;5069451;28;20384;-58
2023/02/18 09:23:39;;;;;;;4.88;1.02;;;13.60;1.00;;;;;;5070326;28;20387;-59
2023/02/18 09:26:07;;;;;;;5.30;1.00;;;13.90;1.00;;;;;;5068628;28;20413;-59
2023/02/18 09:28:34;;;;;;;5.82;1.30;;;13.80;1.00;;;;;;5085717;28;20392;-58
2023/02/18 09:31:08;;;;;;;4.75;0.90;;;13.90;1.00;;;;;;5069377;28;20457;-58
2023/02/18 09:33:36;;;;;;;5.70;0.90;;;14.00;1.00;;;;;;5080888;28;21109;-59
2023/02/18 09:36:02;;;;;;;5.05;1.10;;;14.10;1.00;;;;;;5073490;28;20376;-58
2023/02/18 09:38:28;;;;;;;6.00;1.00;;;14.30;1.00;;;;;;5064885;28;20394;-58
2023/02/18 09:40:54;;;;;;;5.30;0.90;;;14.10;1.00;;;;;;5071025;28;20453;-59
2023/02/18 09:43:29;;;;;;;5.78;1.25;;;14.20;1.00;;;;;;5085617;28;20393;-58
2023/02/18 09:45:55;;;;;;;5.80;0.90;;;14.20;1.00;;;;;;5049146;28;20940;-58
2023/02/18 09:48:30;;;;;;;4.85;1.00;;;13.40;1.00;;;;;;5064029;28;20849;-58
2023/02/18 09:50:55;;;;;;;5.50;1.20;;;14.10;1.00;;;;;;5089366;28;20408;-57
2023/02/18 09:53:22;;;;;;;5.65;0.90;;;14.40;1.00;;;;;;5089216;28;20394;-58
2023/02/18 09:55:49;;;;;;;4.90;1.00;;;14.40;1.00;;;;;;5069679;28;20388;-58
2023/02/18 09:58:21;;;;;;;5.13;0.90;;;14.40;1.00;;;;;;5069325;28;20773;-58
2023/02/18 10:00:56;;;;;;;6.30;0.90;;;14.30;1.00;;;;;;5078671;28;20465;-59
2023/02/18 10:03:25;;;;;;;5.80;1.10;;;12.70;1.00;;;;;;5089794;28;20422;-58
2023/02/18 10:05:59;;;;;;;6.90;1.17;;;14.50;1.00;;;;;;5088933;28;20390;-58
2023/02/18 10:08:32;;;;;;;5.47;1.30;;;14.50;1.00;;;;;;5086410;28;20451;-57
2023/02/18 10:10:57;;;;;;;5.50;1.20;;;14.50;1.00;;;;;;5071596;28;20481;-58
2023/02/18 10:13:27;;;;;;;5.00;1.00;;;14.60;1.00;;;;;;5085102;28;20792;-58
2023/02/18 10:15:53;;;;;;;4.70;0.90;;;14.50;1.00;;;;;;5069110;28;20441;-57
2023/02/18 10:18:30;;;;;;;5.80;1.00;;;14.50;1.00;;;;;;5069608;28;20384;-58
2023/02/18 10:21:03;;;;;;;5.60;1.20;;;14.60;1.00;;;;;;5068788;28;20379;-58
2023/02/18 10:23:31;;;;;;;5.55;1.13;;;14.80;1.00;;;;;;5075204;28;20432;-59
2023/02/18 10:26:00;;;;;;;5.65;0.73;;;14.70;1.00;;;;;;5087057;28;20432;-59
2023/02/18 10:28:26;;;;;;;4.90;0.82;;;14.70;1.00;;;;;;5072765;28;20406;-58
2023/02/18 10:30:58;;;;;;;4.88;0.70;;;14.60;1.00;;;;;;5068505;28;20495;-58
2023/02/18 10:33:33;;;;;;;5.10;0.90;;;14.80;1.00;;;;;;5073578;28;20375;-58
2023/02/18 10:36:16;;;;;;;4.80;0.80;;;14.90;1.00;;;;;;5094198;28;20854;-58
2023/02/18 10:39:00;;;;;;;5.20;1.20;;;14.90;1.00;;;;;;5078185;28;20820;-58
2023/02/18 10:41:54;;;;;;;5.80;1.00;;;15.20;1.00;;;;;;5079441;28;20745;-58
2023/02/18 10:44:49;;;;;;;5.30;0.93;;;15.30;1.00;;;;;;5075000;28;20436;-58
2023/02/18 10:47:38;;;;;;;5.45;1.00;;;15.30;1.00;;;;;;5075160;28;20406;-58
2023/02/18 10:50:09;;;;;;;5.45;1.13;;;15.10;1.00;;;;;;5074596;28;20455;-58
2023/02/18 10:52:48;;;;;;;6.00;1.10;;;15.00;1.00;;;;;;5076093;28;20430;-58
2023/02/18 10:55:17;;;;;;;5.60;1.20;;;15.40;1.00;;;;;;5075454;28;20402;-58
2023/02/18 10:57:51;;;;;;;5.03;1.02;;;15.30;1.00;;;;;;5074171;28;20387;-58
2023/02/18 11:00:25;;;;;;;4.97;1.08;;;15.20;1.00;;;;;;5075434;28;20388;-58
2023/02/18 11:03:09;;;;;;;4.93;0.93;;;15.50;1.00;;;;;;5075176;28;20393;-58
2023/02/18 11:05:35;;;;;;;5.30;1.00;;;15.50;1.00;;;;;;5072013;28;20388;-58
2023/02/18 11:08:05;;;;;;;6.00;1.10;;;15.40;1.00;;;;;;5079164;28;20489;-55
2023/02/18 11:10:37;;;;;;;4.90;0.80;;;15.40;1.00;;;;;;5092792;28;20488;-55
2023/02/18 11:13:07;;;;;;;4.70;0.90;;;15.90;1.00;;;;;;5094377;28;20428;-62
2023/02/18 11:15:33;;;;;;;6.00;1.00;;;15.50;1.00;;;;;;5095464;28;20761;-57
2023/02/18 11:18:24;;;;;;;4.85;0.80;;;15.40;1.00;;;;;;5079499;28;20880;-58
2023/02/18 11:20:59;;;;;;;4.90;0.90;;;15.20;1.00;;;;;;5075273;28;20493;-58
2023/02/18 11:23:25;;;;;;;6.13;1.17;;;15.50;1.00;;;;;;5084014;28;20402;-58
2023/02/18 11:26:10;;;;;;;5.13;1.10;;;15.60;1.00;;;;;;5093061;28;20432;-60
2023/02/18 11:28:48;;;;;;;5.28;1.00;;;15.50;1.00;;;;;;5093661;28;20401;-58
2023/02/18 11:31:23;;;;;;;5.00;0.95;;;16.10;1.00;;;;;;5094707;28;20525;-60
2023/02/18 11:33:57;;;;;;;5.10;1.10;;;15.90;1.00;;;;;;5089885;28;20389;-59
2023/02/18 11:36:29;;;;;;;4.83;0.90;;;15.50;1.00;;;;;;5089312;28;20405;-59
2023/02/18 11:38:56;;;;;;;5.13;1.20;;;15.30;1.00;;;;;;5081861;28;20455;-59
2023/02/18 11:41:42;;;;;;;5.13;1.10;;;15.20;1.00;;;;;;5063028;28;20397;-58
2023/02/18 11:44:29;;;;;;;4.95;0.90;;;15.10;1.00;;;;;;5057286;28;20397;-58
2023/02/18 11:47:12;;;;;;;6.25;1.20;;;15.00;1.00;;;;;;5088495;28;20738;-59
2023/02/18 11:49:40;;;;;;;5.30;1.17;;;15.10;1.00;;;;;;5092040;28;20899;-59
2023/02/18 11:52:34;;;;;;;5.28;1.05;;;15.10;1.00;;;;;;5091030;28;20433;-59
2023/02/18 11:55:16;;;;;;;5.38;1.20;;;15.00;1.00;;;;;;5076621;28;20490;-59
2023/02/18 11:57:52;;;;;;;6.30;1.33;;;15.10;1.00;;;;;;5085541;28;20422;-59
2023/02/18 12:00:45;;;;;;;5.45;1.20;;;15.10;1.00;;;;;;5079955;28;20434;-59
2023/02/18 12:03:34;;;;;;;5.05;1.00;;;15.10;1.00;;;;;;5089044;28;20397;-59
2023/02/18 12:06:04;;;;;;;5.20;1.10;;;15.00;1.00;;;;;;5082773;28;20416;-59
2023/02/18 12:08:38;;;;;;;4.63;0.85;;;14.80;1.00;;;;;;5091026;28;20391;-59
2023/02/18 12:11:11;;;;;;;5.40;1.10;;;14.80;1.00;;;;;;5090917;28;20401;-59
2023/02/18 12:13:49;;;;;;;5.40;1.10;;;14.60;1.00;;;;;;5071774;28;20460;-59
2023/02/18 12:16:26;;;;;;;5.40;1.10;;;14.50;1.00;;;;;;5073443;28;20493;-59
2023/02/18 12:19:18;;;;;;;6.90;1.40;;;14.60;1.00;;;;;;5086718;28;20882;-59
2023/02/18 12:21:58;;;;;;;4.95;1.23;;;14.60;1.00;;;;;;5078248;28;20451;-59
2023/02/18 12:24:30;;;;;;;7.18;1.40;;;14.60;1.00;;;;;;5081859;28;20405;-58
2023/02/18 12:27:22;;;;;;;5.80;1.02;;;14.50;1.00;;;;;;5088942;28;20889;-59
2023/02/18 12:30:04;;;;;;;5.18;1.15;;;14.50;1.00;;;;;;5069814;28;20412;-59
2023/02/18 12:32:56;;;;;;;9.05;1.30;;;14.50;1.00;;;;;;5087966;28;20401;-59
2023/02/18 12:35:56;;;;;;;5.50;1.20;;;14.50;1.00;;;;;;5083328;28;20409;-61
2023/02/18 12:38:54;;;;;;;5.05;1.23;;;14.50;1.00;;;;;;5091675;28;20445;-59
2023/02/18 12:41:30;;;;;;;6.60;1.50;;;14.20;1.00;;;;;;5081823;28;20410;-59
2023/02/18 12:44:28;;;;;;;6.90;1.33;;;14.20;1.00;;;;;;5085792;28;20441;-59
2023/02/18 12:47:17;;;;;;;5.70;1.00;;;14.20;1.00;;;;;;5063639;28;20468;-59
2023/02/18 12:50:23;;;;;;;5.70;1.10;;;14.10;1.00;;;;;;5071520;28;20384;-59
2023/02/18 12:53:04;;;;;;;5.40;1.30;;;14.00;1.00;;;;;;5071869;28;20464;-59
2023/02/18 12:55:34;;;;;;;5.97;1.50;;;14.10;1.00;;;;;;5085136;28;20410;-59
2023/02/18 12:58:18;;;;;;;5.80;1.10;;;14.20;1.00;;;;;;5071038;28;20391;-59
2023/02/18 13:01:11;;;;;;;5.27;1.20;;;14.20;1.00;;;;;;5070584;28;20391;-59
2023/02/18 13:03:42;;;;;;;6.38;1.50;;;14.20;1.00;;;;;;5073445;28;20529;-59
2023/02/18 13:06:23;;;;;;;5.82;1.50;;;14.00;1.00;;;;;;5080430;28;20739;-59
2023/02/18 13:08:55;;;;;;;6.30;1.40;;;14.10;1.00;;;;;;5076297;28;20877;-59
2023/02/18 13:11:53;;;;;;;5.32;1.30;;;14.00;1.00;;;;;;5086624;28;20410;-59